sensor_id;sensor_type;location;lat;lon;timestamp;P1;durP1;ratioP1;P2;durP2;ratioP2
68225;SDS011;55045;49.410;11.030;2022-09-02T00:02:58;2.75;;;2.00;;
68225;SDS011;55045;49.410;11.030;2022-09-02T00:06:02;4.05;;;1.98;;
68225;SDS011;55045;49.410;11.030;2022-09-02T00:09:07;2.20;;;2.03;;
68225;SDS011;55045;49.410;11.030;2022-09-02T00:12:12;5.30;;;1.77;;
68225;SDS011;55045;49.410;11.030;2022-09-02T00:15:15;4.10;;;2.08;;
68225;SDS011;55045;49.410;11.030;2022-09-02T00:18:19;2.63;;;1.88;;
68225;SDS011;55045;49.410;11.030;2022-09-02T00:21:22;3.13;;;1.73;;
68225;SDS011;55045;49.410;11.030;2022-09-02T00:24:27;3.35;;;1.98;;
68225;SDS011;55045;49.410;11.030;2022-09-02T00:27:31;4.25;;;2.15;;
68225;SDS011;55045;49.410;11.030;2022-09-02T00:30:34;4.40;;;2.17;;
68225;SDS011;55045;49.410;11.030;2022-09-02T00:33:38;3.85;;;2.28;;
68225;SDS011;55045;49.410;11.030;2022-09-02T00:36:41;3.08;;;2.10;;
68225;SDS011;55045;49.410;11.030;2022-09-02T00:39:46;2.92;;;2.40;;
68225;SDS011;55045;49.410;11.030;2022-09-02T00:42:50;2.95;;;2.55;;
68225;SDS011;55045;49.410;11.030;2022-09-02T00:45:54;4.38;;;2.70;;
68225;SDS011;55045;49.410;11.030;2022-09-02T00:48:59;2.95;;;2.63;;
68225;SDS011;55045;49.410;11.030;2022-09-02T00:52:08;3.85;;;2.20;;
68225;SDS011;55045;49.410;11.030;2022-09-02T00:55:17;3.05;;;2.47;;
68225;SDS011;55045;49.410;11.030;2022-09-02T00:58:24;5.35;;;2.30;;
68225;SDS011;55045;49.410;11.030;2022-09-02T01:01:32;3.42;;;2.00;;
68225;SDS011;55045;49.410;11.030;2022-09-02T01:04:36;2.70;;;2.35;;
68225;SDS011;55045;49.410;11.030;2022-09-02T01:07:39;2.30;;;2.05;;
68225;SDS011;55045;49.410;11.030;2022-09-02T01:10:45;2.75;;;2.35;;
68225;SDS011;55045;49.410;11.030;2022-09-02T01:13:50;6.28;;;2.53;;
68225;SDS011;55045;49.410;11.030;2022-09-02T01:16:55;3.05;;;2.70;;
68225;SDS011;55045;49.410;11.030;2022-09-02T01:20:03;2.90;;;2.65;;
68225;SDS011;55045;49.410;11.030;2022-09-02T01:23:14;4.93;;;2.60;;
68225;SDS011;55045;49.410;11.030;2022-09-02T01:26:19;5.75;;;2.55;;
68225;SDS011;55045;49.410;11.030;2022-09-02T01:29:23;3.67;;;2.88;;
68225;SDS011;55045;49.410;11.030;2022-09-02T01:32:29;4.38;;;3.20;;
68225;SDS011;55045;49.410;11.030;2022-09-02T01:35:33;3.67;;;3.20;;
68225;SDS011;55045;49.410;11.030;2022-09-02T01:38:38;3.50;;;3.10;;
68225;SDS011;55045;49.410;11.030;2022-09-02T01:41:42;5.50;;;3.10;;
68225;SDS011;55045;49.410;11.030;2022-09-02T01:44:46;3.25;;;2.95;;
68225;SDS011;55045;49.410;11.030;2022-09-02T01:47:49;4.72;;;3.10;;
68225;SDS011;55045;49.410;11.030;2022-09-02T01:50:54;4.95;;;3.17;;
68225;SDS011;55045;49.410;11.030;2022-09-02T01:54:00;5.57;;;3.47;;
68225;SDS011;55045;49.410;11.030;2022-09-02T01:57:04;3.42;;;3.10;;
68225;SDS011;55045;49.410;11.030;2022-09-02T02:00:08;6.57;;;3.28;;
68225;SDS011;55045;49.410;11.030;2022-09-02T02:03:13;6.82;;;3.22;;
68225;SDS011;55045;49.410;11.030;2022-09-02T02:06:17;3.70;;;3.40;;
68225;SDS011;55045;49.410;11.030;2022-09-02T02:09:23;7.32;;;3.80;;
68225;SDS011;55045;49.410;11.030;2022-09-02T02:12:27;5.05;;;3.85;;
68225;SDS011;55045;49.410;11.030;2022-09-02T02:15:31;4.05;;;3.33;;
68225;SDS011;55045;49.410;11.030;2022-09-02T02:18:33;3.45;;;3.15;;
68225;SDS011;55045;49.410;11.030;2022-09-02T02:21:38;3.80;;;3.38;;
68225;SDS011;55045;49.410;11.030;2022-09-02T02:24:43;5.82;;;3.65;;
68225;SDS011;55045;49.410;11.030;2022-09-02T02:27:46;3.75;;;3.30;;
68225;SDS011;55045;49.410;11.030;2022-09-02T02:30:50;5.75;;;3.55;;
68225;SDS011;55045;49.410;11.030;2022-09-02T02:33:53;3.63;;;3.33;;
68225;SDS011;55045;49.410;11.030;2022-09-02T02:36:57;3.38;;;2.95;;
68225;SDS011;55045;49.410;11.030;2022-09-02T02:40:02;4.75;;;3.63;;
68225;SDS011;55045;49.410;11.030;2022-09-02T02:43:07;4.30;;;3.90;;
68225;SDS011;55045;49.410;11.030;2022-09-02T02:46:10;4.47;;;3.50;;
68225;SDS011;55045;49.410;11.030;2022-09-02T02:49:14;5.43;;;3.80;;
68225;SDS011;55045;49.410;11.030;2022-09-02T02:52:18;5.43;;;3.65;;
68225;SDS011;55045;49.410;11.030;2022-09-02T02:55:23;6.68;;;3.78;;
68225;SDS011;55045;49.410;11.030;2022-09-02T02:58:27;5.78;;;3.75;;
68225;SDS011;55045;49.410;11.030;2022-09-02T03:01:32;4.88;;;3.60;;
68225;SDS011;55045;49.410;11.030;2022-09-02T03:04:36;6.10;;;4.10;;
68225;SDS011;55045;49.410;11.030;2022-09-02T03:07:42;7.15;;;4.30;;
68225;SDS011;55045;49.410;11.030;2022-09-02T03:10:47;4.30;;;3.90;;
68225;SDS011;55045;49.410;11.030;2022-09-02T03:13:57;5.00;;;4.50;;
68225;SDS011;55045;49.410;11.030;2022-09-02T03:17:01;5.47;;;4.13;;
68225;SDS011;55045;49.410;11.030;2022-09-02T03:20:07;5.13;;;4.63;;
68225;SDS011;55045;49.410;11.030;2022-09-02T03:23:14;4.35;;;3.90;;
68225;SDS011;55045;49.410;11.030;2022-09-02T03:26:23;5.32;;;4.30;;
68225;SDS011;55045;49.410;11.030;2022-09-02T03:29:27;5.68;;;4.00;;
68225;SDS011;55045;49.410;11.030;2022-09-02T03:34:23;6.72;;;4.35;;
68225;SDS011;55045;49.410;11.030;2022-09-02T03:37:30;7.30;;;3.97;;
68225;SDS011;55045;49.410;11.030;2022-09-02T03:40:34;5.63;;;4.60;;
68225;SDS011;55045;49.410;11.030;2022-09-02T03:43:37;5.95;;;3.97;;
68225;SDS011;55045;49.410;11.030;2022-09-02T03:46:40;7.07;;;4.90;;
68225;SDS011;55045;49.410;11.030;2022-09-02T03:49:46;5.57;;;4.90;;
68225;SDS011;55045;49.410;11.030;2022-09-02T03:52:50;7.70;;;4.88;;
68225;SDS011;55045;49.410;11.030;2022-09-02T03:55:54;5.30;;;4.80;;
68225;SDS011;55045;49.410;11.030;2022-09-02T03:59:00;7.80;;;5.15;;
68225;SDS011;55045;49.410;11.030;2022-09-02T04:02:05;5.72;;;3.83;;
68225;SDS011;55045;49.410;11.030;2022-09-02T04:05:11;7.05;;;4.65;;
68225;SDS011;55045;49.410;11.030;2022-09-02T04:08:18;5.13;;;4.57;;
68225;SDS011;55045;49.410;11.030;2022-09-02T04:11:22;5.15;;;4.57;;
68225;SDS011;55045;49.410;11.030;2022-09-02T04:14:27;4.97;;;3.45;;
68225;SDS011;55045;49.410;11.030;2022-09-02T04:22:11;5.07;;;4.55;;
68225;SDS011;55045;49.410;11.030;2022-09-02T04:25:14;5.00;;;4.50;;
68225;SDS011;55045;49.410;11.030;2022-09-02T04:28:20;6.55;;;4.88;;
68225;SDS011;55045;49.410;11.030;2022-09-02T04:31:24;7.40;;;4.28;;
68225;SDS011;55045;49.410;11.030;2022-09-02T04:34:31;6.03;;;4.57;;
68225;SDS011;55045;49.410;11.030;2022-09-02T04:37:37;6.07;;;5.15;;
68225;SDS011;55045;49.410;11.030;2022-09-02T04:40:41;5.07;;;4.68;;
68225;SDS011;55045;49.410;11.030;2022-09-02T04:43:45;7.53;;;5.03;;
68225;SDS011;55045;49.410;11.030;2022-09-02T04:46:48;5.80;;;5.20;;
68225;SDS011;55045;49.410;11.030;2022-09-02T04:49:56;7.60;;;5.10;;
68225;SDS011;55045;49.410;11.030;2022-09-02T04:53:02;7.22;;;5.55;;
68225;SDS011;55045;49.410;11.030;2022-09-02T04:56:07;5.30;;;4.78;;
68225;SDS011;55045;49.410;11.030;2022-09-02T04:59:13;6.80;;;4.53;;
68225;SDS011;55045;49.410;11.030;2022-09-02T05:02:24;6.78;;;4.50;;
68225;SDS011;55045;49.410;11.030;2022-09-02T05:05:29;5.03;;;4.50;;
68225;SDS011;55045;49.410;11.030;2022-09-02T05:08:35;5.13;;;4.63;;
68225;SDS011;55045;49.410;11.030;2022-09-02T05:11:39;8.88;;;4.80;;
68225;SDS011;55045;49.410;11.030;2022-09-02T05:14:43;5.72;;;4.70;;
68225;SDS011;55045;49.410;11.030;2022-09-02T05:17:52;6.60;;;4.68;;
68225;SDS011;55045;49.410;11.030;2022-09-02T05:20:55;6.28;;;4.97;;
68225;SDS011;55045;49.410;11.030;2022-09-02T05:24:00;8.45;;;4.63;;
68225;SDS011;55045;49.410;11.030;2022-09-02T05:27:03;5.80;;;5.22;;
68225;SDS011;55045;49.410;11.030;2022-09-02T05:30:09;6.05;;;4.43;;
68225;SDS011;55045;49.410;11.030;2022-09-02T05:33:14;8.27;;;4.78;;
68225;SDS011;55045;49.410;11.030;2022-09-02T05:36:21;6.30;;;4.45;;
68225;SDS011;55045;49.410;11.030;2022-09-02T05:39:29;5.25;;;3.13;;
68225;SDS011;55045;49.410;11.030;2022-09-02T05:42:34;7.07;;;3.33;;
68225;SDS011;55045;49.410;11.030;2022-09-02T05:45:38;4.97;;;3.25;;
68225;SDS011;55045;49.410;11.030;2022-09-02T05:48:42;3.75;;;2.65;;
68225;SDS011;55045;49.410;11.030;2022-09-02T05:52:04;4.72;;;2.50;;
68225;SDS011;55045;49.410;11.030;2022-09-02T05:55:19;3.17;;;2.50;;
68225;SDS011;55045;49.410;11.030;2022-09-02T05:58:23;7.65;;;2.60;;
68225;SDS011;55045;49.410;11.030;2022-09-02T06:01:27;3.78;;;2.30;;
68225;SDS011;55045;49.410;11.030;2022-09-02T06:04:36;9.55;;;3.08;;
68225;SDS011;55045;49.410;11.030;2022-09-02T06:07:53;6.25;;;2.75;;
68225;SDS011;55045;49.410;11.030;2022-09-02T06:11:06;7.63;;;2.53;;
68225;SDS011;55045;49.410;11.030;2022-09-02T06:14:17;4.57;;;2.35;;
68225;SDS011;55045;49.410;11.030;2022-09-02T06:17:51;6.22;;;3.05;;
68225;SDS011;55045;49.410;11.030;2022-09-02T06:20:54;8.60;;;3.70;;
68225;SDS011;55045;49.410;11.030;2022-09-02T06:24:03;6.05;;;2.78;;
68225;SDS011;55045;49.410;11.030;2022-09-02T06:27:08;5.60;;;2.45;;
68225;SDS011;55045;49.410;11.030;2022-09-02T06:30:15;4.72;;;2.30;;
68225;SDS011;55045;49.410;11.030;2022-09-02T06:33:18;4.15;;;2.42;;
68225;SDS011;55045;49.410;11.030;2022-09-02T06:36:23;4.47;;;2.72;;
68225;SDS011;55045;49.410;11.030;2022-09-02T06:39:30;2.80;;;2.35;;
68225;SDS011;55045;49.410;11.030;2022-09-02T06:42:35;5.38;;;2.90;;
68225;SDS011;55045;49.410;11.030;2022-09-02T06:46:01;5.70;;;2.60;;
68225;SDS011;55045;49.410;11.030;2022-09-02T06:49:09;4.38;;;2.28;;
68225;SDS011;55045;49.410;11.030;2022-09-02T06:52:14;2.83;;;2.30;;
68225;SDS011;55045;49.410;11.030;2022-09-02T06:55:17;3.30;;;2.38;;
68225;SDS011;55045;49.410;11.030;2022-09-02T06:58:23;2.63;;;2.00;;
68225;SDS011;55045;49.410;11.030;2022-09-02T07:01:28;3.97;;;2.30;;
68225;SDS011;55045;49.410;11.030;2022-09-02T07:04:33;4.95;;;2.10;;
68225;SDS011;55045;49.410;11.030;2022-09-02T07:07:58;2.08;;;1.90;;
68225;SDS011;55045;49.410;11.030;2022-09-02T07:11:02;2.20;;;1.98;;
68225;SDS011;55045;49.410;11.030;2022-09-02T07:14:09;4.05;;;1.90;;
68225;SDS011;55045;49.410;11.030;2022-09-02T07:17:13;3.60;;;1.88;;
68225;SDS011;55045;49.410;11.030;2022-09-02T07:20:22;2.03;;;1.83;;
68225;SDS011;55045;49.410;11.030;2022-09-02T07:23:31;3.55;;;2.03;;
68225;SDS011;55045;49.410;11.030;2022-09-02T07:26:42;3.45;;;2.10;;
68225;SDS011;55045;49.410;11.030;2022-09-02T07:29:49;2.20;;;1.95;;
68225;SDS011;55045;49.410;11.030;2022-09-02T07:32:54;2.42;;;2.20;;
68225;SDS011;55045;49.410;11.030;2022-09-02T07:36:00;2.47;;;1.88;;
68225;SDS011;55045;49.410;11.030;2022-09-02T07:39:12;3.63;;;1.67;;
68225;SDS011;55045;49.410;11.030;2022-09-02T07:42:17;4.53;;;2.10;;
68225;SDS011;55045;49.410;11.030;2022-09-02T07:45:23;2.88;;;1.80;;
68225;SDS011;55045;49.410;11.030;2022-09-02T07:48:27;1.67;;;1.50;;
68225;SDS011;55045;49.410;11.030;2022-09-02T07:51:32;2.42;;;1.67;;
68225;SDS011;55045;49.410;11.030;2022-09-02T07:54:36;2.38;;;1.67;;
68225;SDS011;55045;49.410;11.030;2022-09-02T07:57:39;1.98;;;1.75;;
68225;SDS011;55045;49.410;11.030;2022-09-02T08:00:45;4.05;;;1.80;;
68225;SDS011;55045;49.410;11.030;2022-09-02T08:03:50;3.05;;;1.60;;
68225;SDS011;55045;49.410;11.030;2022-09-02T08:06:57;2.67;;;1.60;;
68225;SDS011;55045;49.410;11.030;2022-09-02T08:10:00;2.03;;;1.55;;
68225;SDS011;55045;49.410;11.030;2022-09-02T08:13:03;3.20;;;1.45;;
68225;SDS011;55045;49.410;11.030;2022-09-02T08:16:09;2.35;;;1.77;;
68225;SDS011;55045;49.410;11.030;2022-09-02T08:19:12;3.40;;;1.70;;
68225;SDS011;55045;49.410;11.030;2022-09-02T08:22:16;3.22;;;1.60;;
68225;SDS011;55045;49.410;11.030;2022-09-02T08:25:20;5.05;;;1.60;;
68225;SDS011;55045;49.410;11.030;2022-09-02T08:28:23;1.50;;;1.40;;
68225;SDS011;55045;49.410;11.030;2022-09-02T08:31:28;3.53;;;1.50;;
68225;SDS011;55045;49.410;11.030;2022-09-02T08:34:32;2.30;;;1.25;;
68225;SDS011;55045;49.410;11.030;2022-09-02T08:37:36;2.42;;;1.50;;
68225;SDS011;55045;49.410;11.030;2022-09-02T08:40:40;1.25;;;1.15;;
68225;SDS011;55045;49.410;11.030;2022-09-02T08:43:46;3.35;;;1.40;;
68225;SDS011;55045;49.410;11.030;2022-09-02T08:46:53;2.05;;;1.30;;
68225;SDS011;55045;49.410;11.030;2022-09-02T08:50:02;1.58;;;1.48;;
68225;SDS011;55045;49.410;11.030;2022-09-02T08:53:15;1.38;;;1.27;;
68225;SDS011;55045;49.410;11.030;2022-09-02T08:56:25;2.60;;;1.40;;
68225;SDS011;55045;49.410;11.030;2022-09-02T08:59:29;1.50;;;1.40;;
68225;SDS011;55045;49.410;11.030;2022-09-02T09:02:37;3.05;;;1.40;;
68225;SDS011;55045;49.410;11.030;2022-09-02T09:05:59;4.00;;;1.52;;
68225;SDS011;55045;49.410;11.030;2022-09-02T09:09:11;1.23;;;1.10;;
68225;SDS011;55045;49.410;11.030;2022-09-02T09:12:25;2.35;;;1.38;;
68225;SDS011;55045;49.410;11.030;2022-09-02T09:15:38;2.08;;;1.30;;
68225;SDS011;55045;49.410;11.030;2022-09-02T09:18:50;2.58;;;1.95;;
68225;SDS011;55045;49.410;11.030;2022-09-02T09:21:58;1.15;;;1.05;;
68225;SDS011;55045;49.410;11.030;2022-09-02T09:25:05;1.48;;;1.20;;
68225;SDS011;55045;49.410;11.030;2022-09-02T09:28:12;1.58;;;1.27;;
68225;SDS011;55045;49.410;11.030;2022-09-02T09:38:11;2.33;;;1.20;;
68225;SDS011;55045;49.410;11.030;2022-09-02T09:41:15;1.20;;;1.00;;
68225;SDS011;55045;49.410;11.030;2022-09-02T09:44:36;1.20;;;1.00;;
68225;SDS011;55045;49.410;11.030;2022-09-02T09:47:45;2.00;;;1.05;;
68225;SDS011;55045;49.410;11.030;2022-09-02T09:51:13;1.77;;;1.27;;
68225;SDS011;55045;49.410;11.030;2022-09-02T09:57:22;1.00;;;1.00;;
68225;SDS011;55045;49.410;11.030;2022-09-02T10:00:38;2.65;;;1.20;;
68225;SDS011;55045;49.410;11.030;2022-09-02T10:03:51;1.75;;;1.38;;
68225;SDS011;55045;49.410;11.030;2022-09-02T10:06:58;3.42;;;1.30;;
68225;SDS011;55045;49.410;11.030;2022-09-02T10:10:14;1.40;;;1.13;;
68225;SDS011;55045;49.410;11.030;2022-09-02T10:13:20;5.15;;;1.10;;
68225;SDS011;55045;49.410;11.030;2022-09-02T10:16:33;1.67;;;1.20;;
68225;SDS011;55045;49.410;11.030;2022-09-02T10:19:49;2.90;;;1.00;;
68225;SDS011;55045;49.410;11.030;2022-09-02T10:23:02;1.30;;;1.20;;
68225;SDS011;55045;49.410;11.030;2022-09-02T10:26:16;1.83;;;1.20;;
68225;SDS011;55045;49.410;11.030;2022-09-02T10:29:31;2.03;;;1.00;;
68225;SDS011;55045;49.410;11.030;2022-09-02T10:32:46;1.30;;;1.20;;
68225;SDS011;55045;49.410;11.030;2022-09-02T10:36:09;1.23;;;1.13;;
68225;SDS011;55045;49.410;11.030;2022-09-02T10:39:28;1.42;;;1.10;;
68225;SDS011;55045;49.410;11.030;2022-09-02T10:42:46;1.60;;;1.50;;
68225;SDS011;55045;49.410;11.030;2022-09-02T10:45:59;2.42;;;1.23;;
68225;SDS011;55045;49.410;11.030;2022-09-02T10:49:04;2.05;;;1.50;;
68225;SDS011;55045;49.410;11.030;2022-09-02T10:52:22;3.17;;;1.35;;
68225;SDS011;55045;49.410;11.030;2022-09-02T10:55:47;1.38;;;1.20;;
68225;SDS011;55045;49.410;11.030;2022-09-02T10:58:56;16.00;;;2.60;;
68225;SDS011;55045;49.410;11.030;2022-09-02T11:02:08;2.97;;;1.20;;
68225;SDS011;55045;49.410;11.030;2022-09-02T11:05:16;3.53;;;1.33;;
68225;SDS011;55045;49.410;11.030;2022-09-02T11:08:26;1.52;;;1.20;;
68225;SDS011;55045;49.410;11.030;2022-09-02T11:11:39;1.40;;;1.10;;
68225;SDS011;55045;49.410;11.030;2022-09-02T11:14:52;2.00;;;1.42;;
68225;SDS011;55045;49.410;11.030;2022-09-02T11:18:07;1.77;;;1.30;;
68225;SDS011;55045;49.410;11.030;2022-09-02T11:21:23;1.80;;;1.20;;
68225;SDS011;55045;49.410;11.030;2022-09-02T11:24:33;2.63;;;1.45;;
68225;SDS011;55045;49.410;11.030;2022-09-02T11:27:49;1.30;;;1.20;;
68225;SDS011;55045;49.410;11.030;2022-09-02T11:31:02;3.22;;;1.20;;
68225;SDS011;55045;49.410;11.030;2022-09-02T11:34:13;1.30;;;1.20;;
68225;SDS011;55045;49.410;11.030;2022-09-02T11:37:25;1.52;;;1.40;;
68225;SDS011;55045;49.410;11.030;2022-09-02T11:40:35;1.30;;;1.20;;
68225;SDS011;55045;49.410;11.030;2022-09-02T11:43:47;1.40;;;1.30;;
68225;SDS011;55045;49.410;11.030;2022-09-02T11:47:22;2.65;;;1.20;;
68225;SDS011;55045;49.410;11.030;2022-09-02T11:50:49;1.52;;;1.23;;
68225;SDS011;55045;49.410;11.030;2022-09-02T11:54:02;1.60;;;1.20;;
68225;SDS011;55045;49.410;11.030;2022-09-02T11:57:09;1.40;;;1.30;;
68225;SDS011;55045;49.410;11.030;2022-09-02T12:00:26;1.55;;;1.40;;
68225;SDS011;55045;49.410;11.030;2022-09-02T12:03:32;2.45;;;1.20;;
68225;SDS011;55045;49.410;11.030;2022-09-02T12:14:01;1.08;;;0.98;;
68225;SDS011;55045;49.410;11.030;2022-09-02T12:17:10;1.03;;;1.03;;
68225;SDS011;55045;49.410;11.030;2022-09-02T12:24:20;3.45;;;1.20;;
68225;SDS011;55045;49.410;11.030;2022-09-02T12:27:27;1.75;;;1.00;;
68225;SDS011;55045;49.410;11.030;2022-09-02T12:37:55;2.97;;;1.30;;
68225;SDS011;55045;49.410;11.030;2022-09-02T12:41:06;4.35;;;1.30;;
68225;SDS011;55045;49.410;11.030;2022-09-02T12:44:22;1.25;;;1.08;;
68225;SDS011;55045;49.410;11.030;2022-09-02T12:47:32;2.55;;;1.40;;
68225;SDS011;55045;49.410;11.030;2022-09-02T12:50:55;1.30;;;0.98;;
68225;SDS011;55045;49.410;11.030;2022-09-02T12:54:01;2.80;;;1.00;;
68225;SDS011;55045;49.410;11.030;2022-09-02T12:57:06;3.53;;;1.40;;
68225;SDS011;55045;49.410;11.030;2022-09-02T13:00:14;1.30;;;1.20;;
68225;SDS011;55045;49.410;11.030;2022-09-02T13:03:45;2.95;;;1.52;;
68225;SDS011;55045;49.410;11.030;2022-09-02T13:18:13;1.83;;;1.10;;
68225;SDS011;55045;49.410;11.030;2022-09-02T13:25:23;2.35;;;1.30;;
68225;SDS011;55045;49.410;11.030;2022-09-02T13:28:57;1.50;;;1.00;;
68225;SDS011;55045;49.410;11.030;2022-09-02T13:32:13;3.03;;;1.00;;
68225;SDS011;55045;49.410;11.030;2022-09-02T13:35:23;1.23;;;1.13;;
68225;SDS011;55045;49.410;11.030;2022-09-02T13:38:29;1.48;;;1.20;;
68225;SDS011;55045;49.410;11.030;2022-09-02T13:41:35;2.03;;;1.17;;
68225;SDS011;55045;49.410;11.030;2022-09-02T13:44:38;1.98;;;1.00;;
68225;SDS011;55045;49.410;11.030;2022-09-02T13:47:42;2.30;;;1.10;;
68225;SDS011;55045;49.410;11.030;2022-09-02T13:50:47;1.60;;;1.05;;
68225;SDS011;55045;49.410;11.030;2022-09-02T13:53:52;4.45;;;1.10;;
68225;SDS011;55045;49.410;11.030;2022-09-02T13:57:22;1.00;;;1.00;;
68225;SDS011;55045;49.410;11.030;2022-09-02T14:00:30;1.45;;;1.00;;
68225;SDS011;55045;49.410;11.030;2022-09-02T14:03:35;5.38;;;1.15;;
68225;SDS011;55045;49.410;11.030;2022-09-02T14:06:40;3.35;;;1.30;;
68225;SDS011;55045;49.410;11.030;2022-09-02T14:09:46;2.10;;;1.10;;
68225;SDS011;55045;49.410;11.030;2022-09-02T14:12:51;3.53;;;1.30;;
68225;SDS011;55045;49.410;11.030;2022-09-02T14:19:28;2.05;;;1.20;;
68225;SDS011;55045;49.410;11.030;2022-09-02T14:22:32;3.90;;;1.10;;
68225;SDS011;55045;49.410;11.030;2022-09-02T14:25:36;1.20;;;0.90;;
68225;SDS011;55045;49.410;11.030;2022-09-02T14:28:49;1.70;;;1.25;;
68225;SDS011;55045;49.410;11.030;2022-09-02T14:32:05;2.00;;;1.00;;
68225;SDS011;55045;49.410;11.030;2022-09-02T14:35:20;2.38;;;1.15;;
68225;SDS011;55045;49.410;11.030;2022-09-02T14:38:24;4.07;;;1.10;;
68225;SDS011;55045;49.410;11.030;2022-09-02T14:41:31;3.13;;;1.10;;
68225;SDS011;55045;49.410;11.030;2022-09-02T14:44:38;3.50;;;1.20;;
68225;SDS011;55045;49.410;11.030;2022-09-02T14:47:42;0.98;;;0.98;;
68225;SDS011;55045;49.410;11.030;2022-09-02T14:50:46;1.10;;;1.00;;
68225;SDS011;55045;49.410;11.030;2022-09-02T14:53:51;1.75;;;1.02;;
68225;SDS011;55045;49.410;11.030;2022-09-02T14:56:54;0.80;;;0.80;;
68225;SDS011;55045;49.410;11.030;2022-09-02T14:59:59;1.10;;;0.90;;
68225;SDS011;55045;49.410;11.030;2022-09-02T15:03:04;4.70;;;1.20;;
68225;SDS011;55045;49.410;11.030;2022-09-02T15:06:08;2.78;;;1.23;;
68225;SDS011;55045;49.410;11.030;2022-09-02T15:09:16;3.53;;;1.00;;
68225;SDS011;55045;49.410;11.030;2022-09-02T15:12:19;1.42;;;1.00;;
68225;SDS011;55045;49.410;11.030;2022-09-02T15:15:27;5.33;;;1.60;;
68225;SDS011;55045;49.410;11.030;2022-09-02T15:18:30;7.32;;;1.52;;
68225;SDS011;55045;49.410;11.030;2022-09-02T15:21:34;49.00;;;3.83;;
68225;SDS011;55045;49.410;11.030;2022-09-02T15:24:38;2.03;;;1.20;;
68225;SDS011;55045;49.410;11.030;2022-09-02T15:27:41;2.10;;;1.15;;
68225;SDS011;55045;49.410;11.030;2022-09-02T15:34:21;2.53;;;0.97;;
68225;SDS011;55045;49.410;11.030;2022-09-02T15:37:25;0.95;;;0.95;;
68225;SDS011;55045;49.410;11.030;2022-09-02T15:40:28;1.48;;;1.10;;
68225;SDS011;55045;49.410;11.030;2022-09-02T15:43:33;1.45;;;1.35;;
68225;SDS011;55045;49.410;11.030;2022-09-02T15:46:37;2.97;;;1.00;;
68225;SDS011;55045;49.410;11.030;2022-09-02T15:49:41;3.42;;;1.17;;
68225;SDS011;55045;49.410;11.030;2022-09-02T15:52:45;2.05;;;1.40;;
68225;SDS011;55045;49.410;11.030;2022-09-02T15:55:48;1.42;;;0.95;;
68225;SDS011;55045;49.410;11.030;2022-09-02T15:58:55;1.70;;;0.90;;
68225;SDS011;55045;49.410;11.030;2022-09-02T16:02:01;1.00;;;0.98;;
68225;SDS011;55045;49.410;11.030;2022-09-02T16:05:09;1.55;;;1.00;;
68225;SDS011;55045;49.410;11.030;2022-09-02T16:08:37;1.00;;;1.00;;
68225;SDS011;55045;49.410;11.030;2022-09-02T16:11:41;0.98;;;0.98;;
68225;SDS011;55045;49.410;11.030;2022-09-02T16:14:46;1.42;;;1.02;;
68225;SDS011;55045;49.410;11.030;2022-09-02T16:17:51;3.13;;;1.40;;
68225;SDS011;55045;49.410;11.030;2022-09-02T16:20:56;2.42;;;1.08;;
68225;SDS011;55045;49.410;11.030;2022-09-02T16:23:59;1.58;;;1.20;;
68225;SDS011;55045;49.410;11.030;2022-09-02T16:27:03;1.10;;;1.00;;
68225;SDS011;55045;49.410;11.030;2022-09-02T16:30:07;1.90;;;1.20;;
68225;SDS011;55045;49.410;11.030;2022-09-02T16:33:11;2.13;;;0.90;;
68225;SDS011;55045;49.410;11.030;2022-09-02T16:36:16;1.15;;;1.05;;
68225;SDS011;55045;49.410;11.030;2022-09-02T16:39:19;2.50;;;1.30;;
68225;SDS011;55045;49.410;11.030;2022-09-02T16:42:23;4.05;;;1.60;;
68225;SDS011;55045;49.410;11.030;2022-09-02T16:45:26;2.55;;;1.40;;
68225;SDS011;55045;49.410;11.030;2022-09-02T16:48:30;1.13;;;1.02;;
68225;SDS011;55045;49.410;11.030;2022-09-02T16:51:38;1.42;;;1.05;;
68225;SDS011;55045;49.410;11.030;2022-09-02T16:54:42;1.35;;;1.23;;
68225;SDS011;55045;49.410;11.030;2022-09-02T16:57:45;2.38;;;2.17;;
68225;SDS011;55045;49.410;11.030;2022-09-02T17:00:48;5.80;;;1.73;;
68225;SDS011;55045;49.410;11.030;2022-09-02T17:03:52;3.28;;;1.25;;
68225;SDS011;55045;49.410;11.030;2022-09-02T17:06:56;1.40;;;1.17;;
68225;SDS011;55045;49.410;11.030;2022-09-02T17:10:00;1.75;;;1.33;;
68225;SDS011;55045;49.410;11.030;2022-09-02T17:13:03;1.20;;;1.10;;
68225;SDS011;55045;49.410;11.030;2022-09-02T17:16:06;2.67;;;1.30;;
68225;SDS011;55045;49.410;11.030;2022-09-02T17:19:10;1.83;;;1.17;;
68225;SDS011;55045;49.410;11.030;2022-09-02T17:22:16;3.67;;;1.10;;
68225;SDS011;55045;49.410;11.030;2022-09-02T17:25:19;1.92;;;1.08;;
68225;SDS011;55045;49.410;11.030;2022-09-02T17:28:23;3.25;;;1.20;;
68225;SDS011;55045;49.410;11.030;2022-09-02T17:31:29;2.83;;;1.35;;
68225;SDS011;55045;49.410;11.030;2022-09-02T17:34:34;2.85;;;1.35;;
68225;SDS011;55045;49.410;11.030;2022-09-02T17:37:39;1.40;;;1.20;;
68225;SDS011;55045;49.410;11.030;2022-09-02T17:40:43;1.02;;;1.02;;
68225;SDS011;55045;49.410;11.030;2022-09-02T17:44:11;1.35;;;1.00;;
68225;SDS011;55045;49.410;11.030;2022-09-02T17:47:17;1.13;;;1.02;;
68225;SDS011;55045;49.410;11.030;2022-09-02T17:50:21;1.98;;;1.50;;
68225;SDS011;55045;49.410;11.030;2022-09-02T17:53:26;4.10;;;1.60;;
68225;SDS011;55045;49.410;11.030;2022-09-02T17:56:33;1.58;;;1.48;;
68225;SDS011;55045;49.410;11.030;2022-09-02T17:59:50;1.30;;;1.20;;
68225;SDS011;55045;49.410;11.030;2022-09-02T18:06:39;2.17;;;1.20;;
68225;SDS011;55045;49.410;11.030;2022-09-02T18:09:47;3.13;;;1.90;;
68225;SDS011;55045;49.410;11.030;2022-09-02T18:12:53;4.95;;;1.70;;
68225;SDS011;55045;49.410;11.030;2022-09-02T18:16:02;2.20;;;1.20;;
68225;SDS011;55045;49.410;11.030;2022-09-02T18:19:28;1.35;;;1.25;;
68225;SDS011;55045;49.410;11.030;2022-09-02T18:22:50;1.55;;;1.40;;
68225;SDS011;55045;49.410;11.030;2022-09-02T18:26:08;2.40;;;1.38;;
68225;SDS011;55045;49.410;11.030;2022-09-02T18:29:31;2.00;;;1.40;;
68225;SDS011;55045;49.410;11.030;2022-09-02T18:32:47;3.47;;;1.52;;
68225;SDS011;55045;49.410;11.030;2022-09-02T18:36:06;2.28;;;1.50;;
68225;SDS011;55045;49.410;11.030;2022-09-02T18:39:19;1.90;;;1.40;;
68225;SDS011;55045;49.410;11.030;2022-09-02T18:42:40;1.42;;;1.23;;
68225;SDS011;55045;49.410;11.030;2022-09-02T18:45:49;2.60;;;1.45;;
68225;SDS011;55045;49.410;11.030;2022-09-02T18:48:54;3.63;;;1.42;;
68225;SDS011;55045;49.410;11.030;2022-09-02T18:52:02;2.38;;;1.48;;
68225;SDS011;55045;49.410;11.030;2022-09-02T18:55:08;1.48;;;1.30;;
68225;SDS011;55045;49.410;11.030;2022-09-02T18:58:20;1.75;;;1.50;;
68225;SDS011;55045;49.410;11.030;2022-09-02T19:01:36;1.30;;;1.20;;
68225;SDS011;55045;49.410;11.030;2022-09-02T19:04:44;2.83;;;1.40;;
68225;SDS011;55045;49.410;11.030;2022-09-02T19:07:47;2.97;;;1.40;;
68225;SDS011;55045;49.410;11.030;2022-09-02T19:11:13;3.85;;;1.30;;
68225;SDS011;55045;49.410;11.030;2022-09-02T19:14:23;1.90;;;1.60;;
68225;SDS011;55045;49.410;11.030;2022-09-02T19:17:28;3.20;;;1.30;;
68225;SDS011;55045;49.410;11.030;2022-09-02T19:20:31;1.90;;;1.63;;
68225;SDS011;55045;49.410;11.030;2022-09-02T19:23:38;1.50;;;1.40;;
68225;SDS011;55045;49.410;11.030;2022-09-02T19:26:45;6.00;;;1.83;;
68225;SDS011;55045;49.410;11.030;2022-09-02T19:33:06;3.40;;;1.60;;
68225;SDS011;55045;49.410;11.030;2022-09-02T19:36:16;2.58;;;1.60;;
68225;SDS011;55045;49.410;11.030;2022-09-02T19:39:21;10.35;;;1.50;;